Time;durP1;ratioP1;P1;durP2;ratioP2;P2;SDS_P1;SDS_P2;PMS_P1;PMS_P2;Temp;Humidity;BMP_temperature;BMP_pressure;BME280_temperature;BME280_humidity;BME280_pressure;Samples;Min_cycle;Max_cycle;Signal;HPM_P1;HPM_P2
2023/08/14 00:00:35;;;;;;;;;8.33;8.33;;;;;22.13;100.00;101211.59;5077804;27;45436;-71
2023/08/14 00:03:01;;;;;;;;;9.67;9.33;;;;;22.11;100.00;101203.56;5076295;28;59961;-71
2023/08/14 00:05:26;;;;;;;;;11.00;11.00;;;;;22.10;100.00;101208.94;5075149;27;46473;-71
2023/08/14 00:07:51;;;;;;;;;11.33;11.33;;;;;22.07;100.00;101201.00;5076227;27;68019;-71
2023/08/14 00:10:17;;;;;;;;;12.00;12.00;;;;;22.10;100.00;101191.03;5077491;27;45284;-71
2023/08/14 00:12:42;;;;;;;;;12.33;10.67;;;;;22.09;100.00;101191.06;5075824;28;63240;-71
2023/08/14 00:15:08;;;;;;;;;14.33;12.33;;;;;22.08;100.00;101200.06;5076315;27;70293;-71
2023/08/14 00:17:33;;;;;;;;;14.00;12.33;;;;;22.04;100.00;101203.75;5075240;28;45256;-72
2023/08/14 00:19:58;;;;;;;;;21.33;12.67;;;;;22.00;100.00;101197.63;5077234;28;45451;-71
2023/08/14 00:22:24;;;;;;;;;13.00;10.33;;;;;21.95;100.00;101188.81;5074471;27;58716;-72
2023/08/14 00:24:49;;;;;;;;;15.67;13.33;;;;;21.98;100.00;101186.88;5076424;28;62100;-71
2023/08/14 00:27:14;;;;;;;;;13.67;11.67;;;;;21.98;100.00;101181.50;5076680;27;45430;-71
2023/08/14 00:29:40;;;;;;;;;13.67;12.33;;;;;21.97;100.00;101189.63;5068329;28;64088;-71
2023/08/14 00:32:05;;;;;;;;;15.00;13.67;;;;;21.96;100.00;101190.56;5076220;28;58237;-71
2023/08/14 00:34:30;;;;;;;;;14.00;12.67;;;;;21.92;100.00;101181.69;5076681;28;56264;-71
2023/08/14 00:36:56;;;;;;;;;15.67;12.67;;;;;21.92;100.00;101178.13;5075977;28;69161;-71
2023/08/14 00:39:21;;;;;;;;;13.00;13.00;;;;;21.90;100.00;101175.50;5075929;27;63909;-71
2023/08/14 00:41:46;;;;;;;;;18.33;15.00;;;;;21.87;100.00;101167.50;5076084;27;61329;-71
2023/08/14 00:44:11;;;;;;;;;17.67;15.00;;;;;21.84;100.00;101159.56;5076792;27;56421;-71
2023/08/14 00:46:37;;;;;;;;;15.00;13.00;;;;;21.84;100.00;101156.88;5074283;27;66310;-70
2023/08/14 00:49:02;;;;;;;;;15.67;14.00;;;;;21.83;100.00;101159.59;5075723;27;62795;-71
2023/08/14 00:51:28;;;;;;;;;16.33;15.00;;;;;21.83;100.00;101165.84;5077012;27;45323;-72
2023/08/14 00:53:54;;;;;;;;;21.00;16.33;;;;;21.83;100.00;101167.66;5076840;27;45541;-71
2023/08/14 00:56:20;;;;;;;;;14.00;14.00;;;;;21.82;100.00;101164.09;5076124;27;56950;-71
2023/08/14 00:58:46;;;;;;;;;16.67;15.33;;;;;21.81;100.00;101156.94;5076762;27;45511;-71
2023/08/14 01:01:12;;;;;;;;;16.33;13.33;;;;;21.81;100.00;101159.63;5076538;27;45552;-72
2023/08/14 01:03:38;;;;;;;;;14.00;14.00;;;;;21.80;100.00;101159.69;5057797;28;51783;-71
2023/08/14 01:06:03;;;;;;;;;15.67;14.33;;;;;21.79;100.00;101155.25;5058225;28;49955;-71
2023/08/14 01:08:29;;;;;;;;;16.00;15.00;;;;;21.83;100.00;101157.78;5075009;27;62391;-73
2023/08/14 01:10:59;;;;;;;;;17.67;14.33;;;;;21.82;100.00;101152.44;5076821;27;45347;-71
2023/08/14 01:13:36;;;;;;;;;12.67;12.67;;;;;21.86;100.00;101151.44;5070029;27;46688;-71
2023/08/14 01:16:07;;;;;;;;;16.33;13.33;;;;;21.87;100.00;101146.00;5058274;28;45379;-71
2023/08/14 01:18:33;;;;;;;;;16.33;12.00;;;;;21.87;100.00;101146.00;5076957;27;45232;-70
2023/08/14 01:21:15;;;;;;;;;13.00;12.67;;;;;21.93;100.00;101150.31;5075581;27;45668;-71
2023/08/14 01:23:49;;;;;;;;;11.33;11.33;;;;;21.91;100.00;101146.81;5072047;27;46410;-70
2023/08/14 01:26:15;;;;;;;;;15.67;12.00;;;;;21.95;100.00;101140.41;5070151;28;45412;-72
2023/08/14 01:28:40;;;;;;;;;13.33;10.33;;;;;21.97;100.00;101138.53;5068999;28;63296;-71
2023/08/14 01:31:06;;;;;;;;;19.00;13.33;;;;;21.93;100.00;101134.19;5071248;27;45430;-72
2023/08/14 01:33:31;;;;;;;;;16.00;12.67;;;;;21.96;100.00;101140.34;5072135;28;70585;-71
2023/08/14 01:36:08;;;;;;;;;13.67;12.33;;;;;21.96;100.00;101150.22;5073910;28;63140;-72
2023/08/14 01:38:47;;;;;;;;;11.33;11.33;;;;;21.94;100.00;101155.66;5071705;28;45342;-71
2023/08/14 01:41:41;;;;;;;;;17.00;13.00;;;;;22.00;100.00;101145.63;5057521;28;45430;-71
2023/08/14 01:44:09;;;;;;;;;13.33;13.33;;;;;21.98;100.00;101151.06;5075870;28;45395;-71
2023/08/14 01:46:35;;;;;;;;;12.00;10.33;;;;;21.96;100.00;101159.19;5076002;28;45393;-71
2023/08/14 01:49:02;;;;;;;;;12.33;11.00;;;;;21.98;100.00;101149.25;5074654;27;45447;-71
2023/08/14 01:51:28;;;;;;;;;14.67;12.33;;;;;22.03;100.00;101140.16;5057420;28;45428;-70
2023/08/14 01:53:53;;;;;;;;;9.67;8.00;;;;;22.03;100.00;101145.53;5056870;28;45506;-72
2023/08/14 01:56:18;;;;;;;;;12.00;10.00;;;;;22.03;100.00;101150.91;5052862;27;70731;-71
2023/08/14 01:58:44;;;;;;;;;15.00;13.00;;;;;21.99;100.00;101142.03;5076688;28;53357;-71
2023/08/14 02:01:09;;;;;;;;;13.67;12.00;;;;;21.97;100.00;101138.53;5077269;27;58998;-70
2023/08/14 02:03:34;;;;;;;;;20.33;15.00;;;;;22.00;100.00;101132.16;5079493;28;45630;-71
2023/08/14 02:06:00;;;;;;;;;16.67;9.67;;;;;22.00;100.00;101129.47;5067882;28;65807;-71
2023/08/14 02:08:25;;;;;;;;;15.33;12.00;;;;;21.96;100.00;101129.59;5076845;27;64640;-72
2023/08/14 02:10:50;;;;;;;;;18.33;12.67;;;;;21.98;100.00;101132.22;5071842;28;49224;-71
2023/08/14 02:13:16;;;;;;;;;11.33;11.33;;;;;21.96;100.00;101120.66;5073578;27;65670;-72
2023/08/14 02:15:45;;;;;;;;;14.33;12.67;;;;;21.97;100.00;101119.72;5078455;27;67156;-71
2023/08/14 02:18:10;;;;;;;;;11.33;10.00;;;;;21.95;100.00;101118.91;5078970;27;45470;-71
2023/08/14 02:20:44;;;;;;;;;14.33;12.33;;;;;21.95;100.00;101119.78;5079251;27;51924;-72
2023/08/14 02:23:09;;;;;;;;;13.00;11.00;;;;;21.92;100.00;101116.28;5078909;27;46440;-71
2023/08/14 02:25:39;;;;;;;;;16.67;12.67;;;;;21.95;100.00;101124.28;5077045;27;67176;-72
2023/08/14 02:28:05;;;;;;;;;16.67;12.67;;;;;21.94;100.00;101118.03;5079206;28;45380;-71
2023/08/14 02:30:30;;;;;;;;;15.33;12.67;;;;;21.94;100.00;101112.66;5071033;28;45526;-70
2023/08/14 02:32:56;;;;;;;;;14.33;10.33;;;;;21.95;100.00;101110.84;5074678;28;71792;-71
2023/08/14 02:35:22;;;;;;;;;15.33;10.33;;;;;21.92;100.00;101106.41;5059710;27;45189;-71
2023/08/14 02:37:47;;;;;;;;;12.67;10.33;;;;;21.94;100.00;101099.19;5078245;28;64297;-72
2023/08/14 02:40:12;;;;;;;;;13.00;12.67;;;;;21.92;100.00;101090.28;5075592;27;62961;-71
2023/08/14 02:42:38;;;;;;;;;12.33;10.33;;;;;21.96;100.00;101094.63;5077866;28;50094;-71
2023/08/14 02:45:03;;;;;;;;;14.00;11.67;;;;;21.94;100.00;101087.53;5078784;28;45382;-70
2023/08/14 02:47:29;;;;;;;;;12.67;11.00;;;;;21.95;100.00;101090.19;5077696;28;45462;-71
2023/08/14 02:49:54;;;;;;;;;17.00;12.33;;;;;21.94;100.00;101091.13;5075389;28;55628;-70
2023/08/14 02:52:19;;;;;;;;;16.33;14.67;;;;;21.90;100.00;101078.72;5059636;28;65969;-71
2023/08/14 02:54:45;;;;;;;;;14.67;13.00;;;;;21.89;100.00;101076.03;5077306;28;67106;-71
2023/08/14 02:57:10;;;;;;;;;19.33;13.00;;;;;21.91;100.00;101087.66;5070626;28;45439;-71
2023/08/14 02:59:35;;;;;;;;;14.67;13.00;;;;;21.98;100.00;101087.41;5076729;27;45474;-70
2023/08/14 03:02:01;;;;;;;;;15.67;14.00;;;;;21.96;100.00;101089.25;5067043;28;45620;-71
2023/08/14 03:04:26;;;;;;;;;13.67;11.67;;;;;21.89;100.00;101082.34;5075074;28;63959;-72
2023/08/14 03:06:51;;;;;;;;;11.33;11.00;;;;;21.87;100.00;101085.97;5059841;28;45747;-71
2023/08/14 03:09:17;;;;;;;;;11.33;9.67;;;;;21.85;100.00;101085.16;5075662;28;56694;-71
2023/08/14 03:11:42;;;;;;;;;12.33;10.33;;;;;21.81;100.00;101086.19;5072491;27;58513;-71
2023/08/14 03:14:07;;;;;;;;;14.00;12.00;;;;;21.79;100.00;101086.25;5075195;27;52277;-72
2023/08/14 03:16:33;;;;;;;;;13.33;12.00;;;;;21.78;100.00;101087.13;5077472;27;61930;-71
2023/08/14 03:18:58;;;;;;;;;12.33;10.67;;;;;21.79;100.00;101085.38;5077850;27;45465;-72
2023/08/14 03:21:23;;;;;;;;;13.00;10.00;;;;;21.73;100.00;101080.16;5078322;27;55863;-71
2023/08/14 03:23:50;;;;;;;;;11.33;11.33;;;;;21.70;100.00;101075.75;5077560;27;52931;-72
2023/08/14 03:26:15;;;;;;;;;15.33;11.00;;;;;21.66;100.00;101077.66;5078461;27;45267;-71
2023/08/14 03:28:40;;;;;;;;;12.00;12.00;;;;;21.68;100.00;101083.00;5059877;27;45548;-70
2023/08/14 03:31:06;;;;;;;;;11.67;9.67;;;;;21.65;100.00;101075.03;5077608;27;69220;-70
2023/08/14 03:33:31;;;;;;;;;10.33;9.33;;;;;21.62;100.00;101078.66;5079389;27;63880;-71
2023/08/14 03:35:56;;;;;;;;;8.33;8.33;;;;;21.60;100.00;101090.41;5078360;28;47443;-71
2023/08/14 03:38:22;;;;;;;;;12.00;9.67;;;;;21.59;100.00;101083.28;5076784;27;62639;-70
2023/08/14 03:40:47;;;;;;;;;14.33;9.67;;;;;21.56;100.00;101078.88;5077173;28;62483;-71
2023/08/14 03:43:12;;;;;;;;;14.67;11.00;;;;;21.58;100.00;101076.16;5076686;27;63283;-71
2023/08/14 03:45:38;;;;;;;;;10.33;8.33;;;;;21.52;100.00;101079.00;5077388;27;62357;-71
2023/08/14 03:48:03;;;;;;;;;12.33;8.67;;;;;21.49;100.00;101084.47;5077167;27;45472;-70
2023/08/14 03:50:29;;;;;;;;;11.67;6.67;;;;;21.50;100.00;101080.88;5077218;28;46267;-71
2023/08/14 03:52:55;;;;;;;;;6.00;5.00;;;;;21.48;100.00;101080.03;5077887;27;47298;-70
2023/08/14 03:55:20;;;;;;;;;8.67;7.67;;;;;21.44;100.00;101080.13;5066580;28;45460;-71
2023/08/14 03:57:45;;;;;;;;;8.67;7.67;;;;;21.40;100.00;101073.06;5077183;28;65317;-71
2023/08/14 04:00:11;;;;;;;;;6.33;6.33;;;;;21.41;100.00;101077.53;5058274;28;69719;-72
2023/08/14 04:02:37;;;;;;;;;7.67;4.67;;;;;21.39;100.00;101060.56;5059258;28;45490;-71
2023/08/14 04:05:02;;;;;;;;;5.33;5.33;;;;;21.35;100.00;101068.75;5078085;27;45445;-70
2023/08/14 04:07:27;;;;;;;;;7.33;6.00;;;;;21.32;100.00;101069.75;5081054;27;45278;-71
2023/08/14 04:09:53;;;;;;;;;4.00;4.00;;;;;21.32;100.00;101075.13;5075434;28;69492;-72
2023/08/14 04:12:19;;;;;;;;;5.33;5.33;;;;;21.32;100.00;101069.75;5075572;28;62111;-72
2023/08/14 04:14:45;;;;;;;;;5.67;4.33;;;;;21.29;100.00;101075.16;5077468;27;45289;-71
2023/08/14 04:17:10;;;;;;;;;10.00;7.00;;;;;21.28;100.00;101077.91;5076893;28;59794;-71
2023/08/14 04:19:35;;;;;;;;;7.33;5.00;;;;;21.28;100.00;101073.41;5058317;28;69803;-71
2023/08/14 04:22:01;;;;;;;;;7.67;7.00;;;;;21.26;100.00;101069.03;5076515;27;57670;-71
2023/08/14 04:24:26;;;;;;;;;6.00;5.33;;;;;21.26;100.00;101058.28;5076629;28;60772;-71
2023/08/14 04:26:51;;;;;;;;;7.33;6.00;;;;;21.24;100.00;101065.47;5075554;28;45620;-72
2023/08/14 04:29:17;;;;;;;;;10.00;5.67;;;;;21.22;100.00;101068.22;5076769;28;45596;-71
2023/08/14 04:31:42;;;;;;;;;12.33;6.67;;;;;21.22;100.00;101078.09;5075103;28;45321;-72
2023/08/14 04:34:09;;;;;;;;;6.00;6.00;;;;;21.22;100.00;101067.34;5067596;28;47370;-72
2023/08/14 04:36:35;;;;;;;;;9.00;6.00;;;;;21.25;100.00;101068.13;5076091;27;45307;-72
2023/08/14 04:39:01;;;;;;;;;8.00;6.67;;;;;21.21;100.00;101058.41;5077004;28;45576;-71
2023/08/14 04:41:27;;;;;;;;;5.67;5.00;;;;;21.24;100.00;101069.03;5076082;27;45367;-71
2023/08/14 04:43:53;;;;;;;;;9.00;8.00;;;;;21.21;100.00;101066.47;5056650;28;45335;-71
2023/08/14 04:46:32;;;;;;;;;5.67;4.33;;;;;21.18;100.00;101059.38;5076608;28;45350;-71
2023/08/14 04:48:58;;;;;;;;;8.67;6.33;;;;;21.26;100.00;101069.91;5076362;28;47496;-70
2023/08/14 04:51:24;;;;;;;;;5.33;5.33;;;;;21.29;100.00;101069.78;5076226;27;45408;-70
2023/08/14 04:53:49;;;;;;;;;7.33;6.33;;;;;21.32;100.00;101075.13;5077014;28;45426;-70
2023/08/14 04:56:14;;;;;;;;;5.33;5.33;;;;;21.31;100.00;101068.00;5076767;28;45289;-71
2023/08/14 04:58:40;;;;;;;;;3.33;3.33;;;;;21.34;100.00;101062.50;5075493;28;47324;-71
2023/08/14 05:01:05;;;;;;;;;6.33;6.00;;;;;21.27;100.00;101079.72;5082124;27;68092;-72
2023/08/14 05:03:31;;;;;;;;;4.33;4.00;;;;;21.26;100.00;101066.34;5078657;27;45270;-70
2023/08/14 05:05:56;;;;;;;;;7.00;4.33;;;;;21.25;100.00;101065.44;5076690;28;45494;-71
2023/08/14 05:08:21;;;;;;;;;6.00;5.00;;;;;21.20;100.00;101067.41;5074677;28;69055;-72
2023/08/14 05:10:54;;;;;;;;;5.33;3.00;;;;;21.20;100.00;101064.72;5075981;28;45429;-72
2023/08/14 05:13:20;;;;;;;;;6.67;6.00;;;;;21.25;100.00;101068.13;5081677;27;45162;-71
2023/08/14 05:15:47;;;;;;;;;6.00;4.00;;;;;21.22;100.00;101068.22;5076281;27;45513;-72
2023/08/14 05:18:13;;;;;;;;;4.00;4.00;;;;;21.23;100.00;101075.34;5075833;27;45837;-71
2023/08/14 05:20:38;;;;;;;;;7.33;4.00;;;;;21.23;100.00;101075.34;5062336;27;45362;-71
2023/08/14 05:23:04;;;;;;;;;7.67;6.00;;;;;21.23;100.00;101072.66;5075837;28;45619;-70
2023/08/14 05:25:29;;;;;;;;;7.00;6.00;;;;;21.27;100.00;101071.66;5071751;28;45986;-70
2023/08/14 05:27:54;;;;;;;;;6.00;5.00;;;;;21.31;100.00;101064.44;5074712;28;68028;-71
2023/08/14 05:30:20;;;;;;;;;8.67;6.00;;;;;21.31;100.00;101064.44;5073025;28;45320;-72
2023/08/14 05:32:46;;;;;;;;;10.33;6.00;;;;;21.31;100.00;101065.31;5064041;28;60226;-71
2023/08/14 05:35:12;;;;;;;;;7.00;7.00;;;;;21.28;100.00;101056.41;5072644;28;45347;-70
2023/08/14 05:37:39;;;;;;;;;8.00;7.00;;;;;21.17;100.00;101070.16;5073863;27;46535;-71
2023/08/14 05:40:05;;;;;;;;;6.67;5.00;;;;;21.11;100.00;101065.84;5075827;28;45481;-70
2023/08/14 05:42:30;;;;;;;;;7.67;6.33;;;;;21.11;100.00;101078.41;5072838;27;45394;-70
2023/08/14 05:44:55;;;;;;;;;9.00;7.00;;;;;21.14;100.00;101063.06;5074795;28;61230;-71
2023/08/14 05:47:21;;;;;;;;;6.67;5.33;;;;;21.11;100.00;101063.16;5075321;28;70183;-72
2023/08/14 05:49:46;;;;;;;;;6.67;6.00;;;;;21.11;100.00;101057.78;5074090;28;59673;-71
2023/08/14 05:52:11;;;;;;;;;10.67;8.00;;;;;21.12;100.00;101061.34;5075825;28;45273;-71
2023/08/14 05:54:37;;;;;;;;;8.67;7.33;;;;;21.13;100.00;101057.75;5075803;27;55615;-71
2023/08/14 05:57:02;;;;;;;;;11.00;6.67;;;;;21.09;100.00;101053.38;5077469;27;46292;-71
2023/08/14 05:59:27;;;;;;;;;5.67;5.67;;;;;21.12;100.00;101056.88;5075063;28;66867;-70
2023/08/14 06:01:53;;;;;;;;;12.33;7.33;;;;;21.19;100.00;101057.56;5076411;27;63646;-70
2023/08/14 06:04:19;;;;;;;;;10.33;8.00;;;;;21.18;100.00;101058.50;5071724;28;45319;-71
2023/08/14 06:06:44;;;;;;;;;9.33;6.33;;;;;21.13;100.00;101053.25;5077171;27;66645;-72
2023/08/14 06:09:09;;;;;;;;;8.00;7.00;;;;;21.17;100.00;101059.41;5075532;27;65412;-71
2023/08/14 06:11:35;;;;;;;;;7.67;7.67;;;;;21.26;100.00;101056.47;5068686;28;64712;-71
2023/08/14 06:14:00;;;;;;;;;7.67;7.00;;;;;21.29;100.00;101059.06;5070018;27;45615;-71
2023/08/14 06:16:26;;;;;;;;;8.00;7.00;;;;;21.33;100.00;101052.69;5074000;27;70993;-72
2023/08/14 06:18:51;;;;;;;;;6.00;6.00;;;;;21.43;100.00;101056.88;5069771;27;45340;-72
2023/08/14 06:21:17;;;;;;;;;11.33;8.33;;;;;21.41;100.00;101042.63;5057636;28;45469;-72
2023/08/14 06:23:42;;;;;;;;;8.00;7.00;;;;;21.47;100.00;101049.63;5075482;27;45271;-71
2023/08/14 06:26:07;;;;;;;;;9.00;7.00;;;;;21.60;100.00;101052.78;5071981;28;69124;-71
2023/08/14 06:28:33;;;;;;;;;8.00;6.00;;;;;21.56;100.00;101051.13;5071570;28;66544;-72
2023/08/14 06:31:02;;;;;;;;;6.67;6.67;;;;;21.70;100.00;101051.56;5075136;28;45884;-72
2023/08/14 06:33:27;;;;;;;;;9.33;6.33;;;;;21.76;100.00;101055.88;5074281;28;45489;-72
2023/08/14 06:35:54;;;;;;;;;6.33;6.33;;;;;21.89;100.00;101055.44;5073218;28;68039;-70
2023/08/14 06:38:19;;;;;;;;;10.67;7.00;;;;;22.00;100.00;101060.47;5055991;28;45429;-72
2023/08/14 06:40:44;;;;;;;;;9.67;5.33;;;;;22.01;100.00;101059.53;5070612;27;45382;-72
2023/08/14 06:43:10;;;;;;;;;6.00;3.00;;;;;22.08;100.00;101053.03;5070695;27;61425;-72
2023/08/14 06:45:35;;;;;;;;;4.67;3.67;;;;;22.13;100.00;101051.09;5076235;28;62308;-76
2023/08/14 06:48:00;;;;;;;;;2.33;2.00;;;;;22.31;100.00;101049.59;5069368;28;66965;-74
2023/08/14 06:50:26;;;;;;;;;4.00;4.00;;;;;22.41;100.00;101042.94;5076505;27;45354;-76
2023/08/14 06:52:52;;;;;;;;;5.00;3.67;;;;;22.55;100.00;101047.00;5073768;28;45548;-75
2023/08/14 06:55:17;;;;;;;;;3.00;3.00;;;;;22.64;100.00;101041.28;5076983;28;47441;-74
2023/08/14 06:57:43;;;;;;;;;7.00;4.00;;;;;22.69;100.00;101048.28;5074584;28;45545;-77
2023/08/14 07:00:13;;;;;;;;;5.00;2.00;;;;;22.79;100.00;101048.78;5074384;28;61642;-74
2023/08/14 07:02:39;;;;;;;;;5.00;3.00;;;;;22.87;100.00;101043.16;5077072;28;46436;-79
2023/08/14 07:05:05;;;;;;;;;3.00;3.00;;;;;22.95;100.00;101036.56;5074579;28;45439;-76
2023/08/14 07:07:30;;;;;;;;;4.00;2.33;;;;;22.94;100.00;101025.84;5076960;27;45457;-71
2023/08/14 07:09:56;;;;;;;;;8.00;4.00;;;;;23.07;100.00;101032.56;5076980;27;64399;-71
2023/08/14 07:12:21;;;;;;;;;4.00;4.00;;;;;23.16;100.00;101036.69;5079279;27;45233;-71
2023/08/14 07:14:47;;;;;;;;;4.00;3.33;;;;;23.23;100.00;101038.25;5077679;27;45718;-71
2023/08/14 07:17:12;;;;;;;;;4.67;3.00;;;;;23.35;100.00;101037.75;5076535;27;47168;-71
2023/08/14 07:19:37;;;;;;;;;2.67;2.67;;;;;23.38;100.00;101036.75;5078702;27;45438;-72
2023/08/14 07:22:03;;;;;;;;;3.67;3.00;;;;;23.46;100.00;101034.66;5067251;27;61973;-71
2023/08/14 07:24:29;;;;;;;;;4.00;2.00;;;;;23.44;100.00;101033.84;5077178;28;69684;-71
2023/08/14 07:26:54;;;;;;;;;4.00;4.00;;;;;23.49;100.00;101039.94;5073847;28;45457;-71
2023/08/14 07:29:20;;;;;;;;;3.00;2.67;;;;;23.52;100.00;101040.66;5077431;28;45211;-69
2023/08/14 07:31:45;;;;;;;;;4.67;3.00;;;;;23.57;100.00;101045.00;5076698;28;56277;-70
2023/08/14 07:34:10;;;;;;;;;3.00;3.00;;;;;23.66;100.00;101050.94;5077312;28;58485;-72
2023/08/14 07:36:35;;;;;;;;;5.00;3.00;;;;;23.72;100.00;101047.13;5076377;28;67104;-70
2023/08/14 07:39:01;;;;;;;;;2.33;2.00;;;;;23.85;100.00;101045.69;5075822;28;46027;-70
2023/08/14 07:41:26;;;;;;;;;2.00;2.00;;;;;23.91;100.00;101042.72;5180798;22;58982;-72
2023/08/14 07:43:51;;;;;;;;;3.00;2.67;;;;;24.02;100.00;101034.19;5058970;28;45963;-71
2023/08/14 07:46:18;;;;;;;;;3.67;2.67;;;;;24.07;100.00;101040.28;5076428;28;71981;-72
2023/08/14 07:48:43;;;;;;;;;2.67;2.67;;;;;24.20;100.00;101037.97;5076559;28;45504;-71
2023/08/14 07:51:09;;;;;;;;;2.00;2.00;;;;;24.26;100.00;101043.97;5076155;28;45657;-71
2023/08/14 07:53:34;;;;;;;;;2.33;2.33;;;;;24.44;100.00;101042.31;5073749;28;46261;-71
2023/08/14 07:55:59;;;;;;;;;3.33;2.67;;;;;24.48;100.00;101033.16;5074933;28;70137;-71
2023/08/14 07:58:25;;;;;;;;;4.33;3.00;;;;;24.54;100.00;101037.41;5076218;28;45303;-72
2023/08/14 08:00:50;;;;;;;;;3.33;3.33;;;;;24.65;100.00;101034.22;5071969;28;45445;-71
2023/08/14 08:03:16;;;;;;;;;2.00;2.00;;;;;24.75;100.00;101032.88;5076418;28;46100;-72
2023/08/14 08:05:42;;;;;;;;;5.67;3.00;;;;;24.86;100.00;101041.38;5072094;27;45490;-70
2023/08/14 08:08:07;;;;;;;;;2.00;2.00;;;;;24.94;100.00;101027.53;5069839;27;45453;-69
2023/08/14 08:10:32;;;;;;;;;5.00;3.00;;;;;25.01;100.00;101027.19;5076807;28;45402;-69
2023/08/14 08:12:58;;;;;;;;;5.67;2.67;;;;;25.06;100.00;101019.78;5070928;28;46727;-69
2023/08/14 08:15:23;;;;;;;;;6.67;2.00;;;;;25.14;100.00;101016.72;5076563;27;65447;-69
2023/08/14 08:17:49;;;;;;;;;3.67;3.00;;;;;25.27;100.00;101007.09;5076627;27;45372;-70
2023/08/14 08:20:15;;;;;;;;;6.33;2.00;;;;;25.36;100.00;101019.28;5075121;28;45609;-69
2023/08/14 08:22:40;;;;;;;;;3.33;2.00;;;;;25.27;100.00;101017.91;5058420;28;46304;-71
2023/08/14 08:25:06;;;;;;;;;3.00;3.00;;;;;25.66;100.00;101011.50;5073809;28;65424;-69
2023/08/14 08:27:31;;;;;;;;;4.67;3.00;;;;;25.79;100.00;101009.13;5072526;28;45287;-69
2023/08/14 08:29:56;;;;;;;;;2.00;2.00;;;;;25.92;100.00;101015.66;5076093;28;61545;-70
2023/08/14 08:32:23;;;;;;;;;3.00;2.00;;;;;26.00;100.00;101010.78;5071424;27;45825;-69
2023/08/14 08:34:48;;;;;;;;;4.33;2.00;;;;;26.21;100.00;101005.22;5076426;28;45228;-69
2023/08/14 08:37:16;;;;;;;;;2.00;2.00;;;;;26.38;100.00;101003.38;5075569;28;45450;-69
2023/08/14 08:39:41;;;;;;;;;5.67;3.00;;;;;26.49;100.00;100996.56;5077072;28;45457;-70
2023/08/14 08:42:08;;;;;;;;;4.33;2.00;;;;;26.51;100.00;101003.63;5075139;28;67920;-69
2023/08/14 08:44:37;;;;;;;;;5.00;2.00;;;;;26.52;100.00;100996.38;5076597;28;45414;-70
2023/08/14 08:47:10;;;;;;;;;5.00;2.33;;;;;26.48;100.00;101001.09;5077136;28;45326;-72
2023/08/14 08:49:35;;;;;;;;;4.00;1.00;;;;;26.49;100.00;101001.97;5073863;28;45572;-70
2023/08/14 08:52:04;;;;;;;;;2.67;2.67;;;;;26.48;100.00;101003.81;5058389;28;46183;-71
2023/08/14 08:54:30;;;;;;;;;3.00;2.00;;;;;26.50;100.00;100996.47;5072701;28;45307;-69
2023/08/14 08:56:59;;;;;;;;;4.33;4.33;;;;;26.51;100.00;100983.81;5058518;28;45378;-68
2023/08/14 08:59:25;;;;;;;;;2.33;2.33;;;;;26.54;100.00;100987.25;5076332;28;45229;-72
2023/08/14 09:01:51;;;;;;;;;5.33;3.00;;;;;26.54;100.00;100995.38;5076130;28;46976;-71
2023/08/14 09:04:17;;;;;;;;;3.33;3.00;;;;;26.58;100.00;100996.97;5075667;27;68481;-70
2023/08/14 09:06:42;;;;;;;;;7.00;3.00;;;;;26.56;100.00;100989.84;5074491;27;61845;-69
2023/08/14 09:09:11;;;;;;;;;2.00;2.00;;;;;26.59;100.00;100987.00;5071057;27;45138;-70
2023/08/14 09:11:36;;;;;;;;;2.00;2.00;;;;;26.61;100.00;100980.53;5075821;28;46532;-70
2023/08/14 09:14:02;;;;;;;;;5.00;4.33;;;;;26.66;100.00;100980.28;5076965;27;45421;-69
2023/08/14 09:16:28;;;;;;;;;4.33;3.67;;;;;26.69;100.00;100980.13;5076244;27;45252;-72
2023/08/14 09:18:57;;;;;;;;;3.00;1.67;;;;;26.72;100.00;100968.25;5077188;27;45346;-71
2023/08/14 09:21:23;;;;;;;;;4.33;3.00;;;;;26.75;100.00;100965.38;5076548;27;47720;-72
2023/08/14 09:23:49;;;;;;;;;2.00;2.00;;;;;26.79;100.00;100956.09;5074920;27;68316;-71
2023/08/14 09:26:15;;;;;;;;;3.67;2.67;;;;;26.79;100.00;100961.53;5075889;27;64936;-70
2023/08/14 09:28:40;;;;;;;;;3.00;3.00;;;;;26.84;100.00;100964.84;5075792;27;45422;-69
2023/08/14 09:31:07;;;;;;;;;5.00;4.00;;;;;26.87;100.00;100951.16;5076309;27;45677;-72
2023/08/14 09:33:33;;;;;;;;;4.33;2.67;;;;;26.87;100.00;100952.03;5076154;27;45454;-69
2023/08/14 09:35:58;;;;;;;;;3.67;2.00;;;;;26.94;100.00;100962.53;5072040;27;45346;-69
2023/08/14 09:38:23;;;;;;;;;3.33;2.00;;;;;27.00;100.00;100954.91;5075447;27;58940;-69
2023/08/14 09:40:48;;;;;;;;;2.67;1.00;;;;;27.07;100.00;100960.94;5075212;28;72197;-72
2023/08/14 09:43:14;;;;;;;;;2.00;2.00;;;;;27.08;100.00;100959.97;5070121;28;67624;-71
2023/08/14 09:45:39;;;;;;;;;4.00;2.33;;;;;27.12;100.00;100959.72;5071886;28;63458;-70
2023/08/14 09:48:05;;;;;;;;;2.33;2.00;;;;;27.13;100.00;100964.16;5071425;28;53858;-69
2023/08/14 09:50:31;;;;;;;;;3.00;3.00;;;;;26.96;100.00;100956.06;5075260;28;45396;-70
2023/08/14 09:52:58;;;;;;;;;5.00;2.33;;;;;27.12;100.00;100945.28;5074675;27;46577;-68
2023/08/14 09:55:25;;;;;;;;;9.67;5.00;;;;;27.02;100.00;100949.44;5075405;28;45459;-71
2023/08/14 09:57:51;;;;;;;;;5.00;4.00;;;;;27.03;100.00;100954.78;5079748;27;45481;-69
2023/08/14 10:00:16;;;;;;;;;2.67;2.67;;;;;27.10;100.00;100956.19;5073292;28;70503;-69
2023/08/14 10:02:44;;;;;;;;;3.67;3.00;;;;;27.18;100.00;100946.78;5074788;28;45570;-70
2023/08/14 10:05:10;;;;;;;;;4.00;4.00;;;;;27.24;100.00;100949.13;5075758;28;45438;-70
2023/08/14 10:07:37;;;;;;;;;3.67;3.33;;;;;27.30;100.00;100940.66;5057709;28;45428;-69
2023/08/14 10:10:03;;;;;;;;;3.67;3.00;;;;;27.44;100.00;100934.44;5074090;28;46606;-69
2023/08/14 10:12:32;;;;;;;;;6.00;3.00;;;;;27.40;100.00;100937.31;5060108;28;45411;-70
2023/08/14 10:15:04;;;;;;;;;3.33;3.33;;;;;27.43;100.00;100936.25;5075818;27;45464;-69
2023/08/14 10:17:33;;;;;;;;;2.67;2.67;;;;;27.47;100.00;100932.41;5058232;28;45368;-69
2023/08/14 10:20:03;;;;;;;;;7.00;3.67;;;;;27.50;100.00;100934.09;5078729;27;46556;-71
2023/08/14 10:22:29;;;;;;;;;3.00;3.00;;;;;27.55;100.00;100940.13;5079228;27;45340;-69
2023/08/14 10:24:54;;;;;;;;;5.00;3.33;;;;;27.60;100.00;100938.91;5079265;27;45484;-70
2023/08/14 10:27:20;;;;;;;;;3.33;3.33;;;;;27.66;100.00;100935.81;5061317;28;45495;-70
2023/08/14 10:29:47;;;;;;;;;6.00;3.67;;;;;27.75;100.00;100930.81;5055605;28;46378;-71
2023/08/14 10:32:13;;;;;;;;;7.67;3.00;;;;;27.91;100.00;100937.09;5076130;28;45554;-71
2023/08/14 10:34:39;;;;;;;;;5.67;2.67;;;;;28.10;100.00;100917.88;5078795;28;45349;-73
2023/08/14 10:37:04;;;;;;;;;3.00;3.00;;;;;28.20;100.00;100919.06;5069048;27;45593;-72
2023/08/14 10:39:35;;;;;;;;;3.00;3.00;;;;;28.30;100.00;100922.09;5078873;28;45338;-71
2023/08/14 10:42:05;;;;;;;;;3.33;3.00;;;;;28.30;100.00;100903.94;5077689;28;65613;-70
2023/08/14 10:44:32;;;;;;;;;6.00;3.00;;;;;28.43;100.00;100913.09;5078455;28;45428;-69
2023/08/14 10:47:05;;;;;;;;;4.67;4.00;;;;;28.61;100.00;100915.66;5079298;28;45386;-70
2023/08/14 10:49:56;;;;;;;;;5.00;4.00;;;;;28.78;100.00;100906.44;5077654;28;47371;-70
2023/08/14 10:52:22;;;;;;;;;5.33;3.00;;;;;28.95;100.00;100915.28;5059342;28;45605;-69
2023/08/14 10:54:51;;;;;;;;;4.00;4.00;;;;;29.11;100.00;100909.72;5078402;27;45496;-69
2023/08/14 10:57:17;;;;;;;;;6.00;3.00;;;;;29.34;100.00;100912.78;5078579;28;45390;-69
2023/08/14 10:59:54;;;;;;;;;9.67;3.67;;;;;29.53;100.00;100918.78;5078038;28;45597;-70
2023/08/14 11:02:19;;;;;;;;;6.33;3.67;;;;;29.67;100.00;100912.38;5078485;28;45469;-69
2023/08/14 11:04:58;;;;;;;;;7.00;2.00;;;;;29.82;100.00;100910.47;5077260;27;65658;-69
2023/08/14 11:07:32;;;;;;;;;3.33;3.33;;;;;29.94;100.00;100915.09;5060422;28;45437;-69